createdAt,value
2023-02-16T00:00:22.923Z,102063.22
2023-02-16T00:02:50.427Z,102057.59
2023-02-16T00:05:28.012Z,102059.94
2023-02-16T00:07:56.145Z,102054.19
2023-02-16T00:10:23.630Z,102053.47
2023-02-16T00:13:09.270Z,102059.47
2023-02-16T00:15:36.332Z,102055.91
2023-02-16T00:18:06.017Z,102057.88
2023-02-16T00:20:32.894Z,102052.88
2023-02-16T00:22:59.778Z,102056.03
2023-02-16T00:25:26.825Z,102055.78
2023-02-16T00:27:53.789Z,102056.59
2023-02-16T00:30:22.634Z,102054.53
2023-02-16T00:32:50.590Z,102048.22
2023-02-16T00:35:19.627Z,102055.13
2023-02-16T00:37:47.517Z,102058.13
2023-02-16T00:40:16.481Z,102049.69
2023-02-16T00:42:45.545Z,102054.09
2023-02-16T00:45:20.509Z,102048.69
2023-02-16T00:47:52.710Z,102046.22
2023-02-16T00:50:24.754Z,102041.78
2023-02-16T00:52:51.973Z,102032.81
2023-02-16T00:55:24.569Z,102033.66
2023-02-16T00:57:56.090Z,102039.03
2023-02-16T01:00:27.123Z,102045.50
2023-02-16T01:02:57.511Z,102036.13
2023-02-16T01:05:25.221Z,102029.41
2023-02-16T01:08:10.752Z,102029.53
2023-02-16T01:10:57.594Z,102034.38
2023-02-16T01:13:27.864Z,102027.53
2023-02-16T01:15:55.724Z,102024.63
2023-02-16T01:18:22.934Z,102026.66
2023-02-16T01:20:51.625Z,102031.59
2023-02-16T01:23:18.451Z,102029.84
2023-02-16T01:25:45.508Z,102018.91
2023-02-16T01:28:22.710Z,102027.50
2023-02-16T01:30:50.994Z,102022.06
2023-02-16T01:33:18.679Z,102019.34
2023-02-16T01:35:45.908Z,102019.44
2023-02-16T01:38:27.891Z,102026.91
2023-02-16T01:41:23.816Z,102023.78
2023-02-16T01:43:56.564Z,102028.78
2023-02-16T01:46:43.442Z,102032.13
2023-02-16T01:49:21.393Z,102028.97
2023-02-16T01:52:13.317Z,102027.97
2023-02-16T01:54:49.295Z,102025.91
2023-02-16T01:57:28.330Z,102025.66
2023-02-16T01:59:55.148Z,102030.34
2023-02-16T02:02:26.198Z,102027.00
2023-02-16T02:05:39.653Z,102022.47
2023-02-16T02:08:25.714Z,102030.91
2023-02-16T02:11:26.202Z,102033.19
2023-02-16T02:14:14.808Z,102027.41
2023-02-16T02:16:51.940Z,102025.53
2023-02-16T02:19:18.851Z,102029.91
2023-02-16T02:22:26.808Z,102025.78
2023-02-16T02:25:13.466Z,102016.81
2023-02-16T02:28:06.255Z,102014.69
2023-02-16T02:30:57.647Z,102014.13
2023-02-16T02:34:11.139Z,102016.41
2023-02-16T02:37:05.553Z,102021.75
2023-02-16T02:40:02.329Z,102029.72
2023-02-16T02:42:38.190Z,102013.03
2023-02-16T02:45:12.586Z,102014.53
2023-02-16T02:47:43.061Z,102014.53
2023-02-16T02:50:28.327Z,102011.00
2023-02-16T02:53:02.452Z,102010.38
2023-02-16T02:55:52.363Z,102011.88
2023-02-16T02:58:40.562Z,102014.31
2023-02-16T03:01:09.041Z,102008.91
2023-02-16T03:03:43.605Z,102006.59
2023-02-16T03:06:27.043Z,102004.09
2023-02-16T03:09:00.675Z,102001.16
2023-02-16T03:11:48.336Z,102002.63
2023-02-16T03:28:05.932Z,102029.78
2023-02-16T03:30:33.077Z,102032.91
2023-02-16T03:33:00.167Z,102032.50
2023-02-16T03:35:27.246Z,102032.94
2023-02-16T03:37:54.102Z,102029.78
2023-02-16T03:40:31.901Z,102025.84
2023-02-16T03:43:06.968Z,102031.47
2023-02-16T03:45:37.321Z,102024.78
2023-02-16T03:48:04.822Z,102019.78
2023-02-16T03:50:31.741Z,102021.25
2023-02-16T03:53:06.983Z,102029.19
2023-02-16T03:55:35.297Z,102031.03
2023-02-16T03:58:02.871Z,102032.72
2023-02-16T04:00:30.557Z,102030.00
2023-02-16T04:02:57.383Z,102034.59
2023-02-16T04:05:24.922Z,102044.59
2023-02-16T04:07:51.935Z,102033.13
2023-02-16T04:10:19.440Z,102032.94
2023-02-16T04:12:46.476Z,102043.56
2023-02-16T04:15:16.928Z,102043.97
2023-02-16T04:17:44.184Z,102038.34
2023-02-16T04:20:14.366Z,102035.22
2023-02-16T04:22:42.299Z,102042.50
2023-02-16T04:25:09.610Z,102034.19
2023-02-16T04:27:37.719Z,102033.31
2023-02-16T04:30:07.091Z,102039.38
2023-02-16T04:32:33.922Z,102042.72
2023-02-16T04:35:00.797Z,102038.94
2023-02-16T04:37:27.735Z,102036.25
2023-02-16T04:39:54.665Z,102045.00
2023-02-16T04:42:21.528Z,102040.19
2023-02-16T04:44:48.483Z,102054.56
2023-02-16T04:47:15.581Z,102054.59
2023-02-16T04:49:42.459Z,102047.88
2023-02-16T04:52:10.001Z,102052.06
2023-02-16T04:54:36.922Z,102054.19
2023-02-16T04:57:03.942Z,102042.06
2023-02-16T04:59:31.412Z,102057.72
2023-02-16T05:01:58.697Z,102055.00
2023-02-16T05:04:25.777Z,102053.94
2023-02-16T05:06:52.677Z,102055.63
2023-02-16T05:09:19.510Z,102065.22
2023-02-16T05:12:05.110Z,102063.13
2023-02-16T05:14:44.999Z,102063.53
2023-02-16T05:17:14.122Z,102073.16
2023-02-16T05:19:42.768Z,102070.00
2023-02-16T05:22:10.378Z,102075.44
2023-02-16T05:24:37.586Z,102073.97
2023-02-16T05:27:07.063Z,102082.09
2023-02-16T05:29:34.439Z,102082.25
2023-02-16T05:32:04.493Z,102080.72
2023-02-16T05:34:32.003Z,102080.16
2023-02-16T05:36:58.986Z,102080.69
2023-02-16T05:39:25.980Z,102090.22
2023-02-16T05:41:52.859Z,102086.09
2023-02-16T05:44:19.765Z,102088.22
2023-02-16T05:46:46.672Z,102088.69
2023-02-16T05:49:15.214Z,102081.50
2023-02-16T05:51:42.474Z,102084.75
2023-02-16T05:54:10.948Z,102094.44
2023-02-16T05:56:37.793Z,102101.03
2023-02-16T05:59:04.681Z,102100.47
2023-02-16T06:01:31.602Z,102101.06
2023-02-16T06:03:58.428Z,102098.13
2023-02-16T06:06:25.390Z,102098.47
2023-02-16T06:08:52.322Z,102102.88
2023-02-16T06:11:37.493Z,102098.47
2023-02-16T06:14:08.627Z,102099.34
2023-02-16T06:16:37.124Z,102097.34
2023-02-16T06:19:05.075Z,102097.88
2023-02-16T06:21:32.810Z,102094.38
2023-02-16T06:23:59.850Z,102101.63
2023-02-16T06:26:27.261Z,102083.94
2023-02-16T06:28:54.858Z,102097.88
2023-02-16T06:31:22.646Z,102093.53
2023-02-16T06:33:49.817Z,102107.25
2023-02-16T06:36:17.602Z,102099.75
2023-02-16T06:38:44.586Z,102102.59
2023-02-16T06:41:11.816Z,102096.72
2023-02-16T06:43:38.723Z,102100.97
2023-02-16T06:46:05.614Z,102102.72
2023-02-16T06:48:32.583Z,102095.00
2023-02-16T06:50:59.415Z,102110.25
2023-02-16T06:53:26.341Z,102109.31
2023-02-16T06:55:53.177Z,102096.84
2023-02-16T06:58:20.040Z,102101.44
2023-02-16T07:00:47.165Z,102097.47
2023-02-16T07:03:14.274Z,102099.00
2023-02-16T07:05:41.278Z,102096.41
2023-02-16T07:08:08.527Z,102099.88
2023-02-16T07:10:49.009Z,102103.69
2023-02-16T07:13:16.760Z,102108.19
2023-02-16T07:15:43.652Z,102104.28
2023-02-16T07:18:10.592Z,102095.34
2023-02-16T07:20:38.049Z,102096.38
2023-02-16T07:23:05.199Z,102095.13
2023-02-16T07:25:32.282Z,102099.44
2023-02-16T07:27:59.212Z,102088.66
2023-02-16T07:30:26.235Z,102082.16
2023-02-16T07:32:53.164Z,102087.91
2023-02-16T07:35:20.221Z,102079.72
2023-02-16T07:37:47.113Z,102082.28
2023-02-16T07:40:14.012Z,102075.69
2023-02-16T07:42:40.934Z,102063.59
2023-02-16T07:45:08.253Z,102065.38
2023-02-16T07:47:35.156Z,102066.38
2023-02-16T07:50:02.113Z,102071.09
2023-02-16T07:52:31.327Z,102065.56
2023-02-16T07:54:59.266Z,102059.47
2023-02-16T07:57:27.991Z,102071.44
2023-02-16T07:59:55.819Z,102065.56
2023-02-16T08:02:23.812Z,102059.81
2023-02-16T08:04:52.979Z,102063.09
2023-02-16T08:07:21.062Z,102065.84
2023-02-16T08:09:47.999Z,102056.91
2023-02-16T08:12:16.077Z,102062.28
2023-02-16T08:14:43.501Z,102057.63
2023-02-16T08:17:10.651Z,102058.75
2023-02-16T08:19:37.671Z,102058.31
2023-02-16T08:22:05.328Z,102064.28
2023-02-16T08:24:34.190Z,102057.38
2023-02-16T08:27:04.463Z,102060.13
2023-02-16T08:29:32.432Z,102058.47
2023-02-16T08:32:00.110Z,102060.47
2023-02-16T08:34:27.646Z,102066.78
2023-02-16T08:36:56.855Z,102065.06
2023-02-16T08:39:28.266Z,102065.44
2023-02-16T08:41:55.660Z,102056.69
2023-02-16T08:44:24.342Z,102058.09
2023-02-16T08:46:53.298Z,102058.44
2023-02-16T08:49:22.148Z,102055.69
2023-02-16T08:51:56.062Z,102059.41
2023-02-16T08:54:30.008Z,102053.19
2023-02-16T08:56:59.144Z,102058.25
2023-02-16T08:59:28.637Z,102054.84
2023-02-16T09:01:58.118Z,102051.72
2023-02-16T09:04:26.388Z,102058.16
2023-02-16T09:06:53.597Z,102053.09
2023-02-16T09:09:20.731Z,102052.59
2023-02-16T09:11:48.741Z,102048.03
2023-02-16T09:14:18.819Z,102046.84
2023-02-16T09:16:46.725Z,102045.09
2023-02-16T09:19:20.655Z,102046.66
2023-02-16T09:21:48.651Z,102043.22
2023-02-16T09:24:16.487Z,102041.41
2023-02-16T09:26:44.850Z,102047.75
2023-02-16T09:29:13.038Z,102038.63
2023-02-16T09:31:40.647Z,102035.03
2023-02-16T09:34:09.509Z,102040.47
2023-02-16T09:36:38.085Z,102034.06
2023-02-16T09:39:05.809Z,102033.09
2023-02-16T09:41:41.754Z,102034.22
2023-02-16T09:44:17.631Z,102026.66
2023-02-16T09:46:44.901Z,102022.22
2023-02-16T09:49:45.167Z,102013.19
2023-02-16T09:52:24.140Z,102019.31
2023-02-16T09:54:56.026Z,102012.44
2023-02-16T09:57:33.705Z,102011.66
2023-02-16T10:00:45.295Z,101993.94
2023-02-16T10:03:32.252Z,101997.97
2023-02-16T10:06:24.287Z,101998.13
2023-02-16T10:09:00.496Z,101992.41
2023-02-16T10:11:45.735Z,101992.22
2023-02-16T10:14:34.727Z,101988.28
2023-02-16T10:17:15.226Z,101992.22
2023-02-16T10:19:57.178Z,101998.19
2023-02-16T10:22:33.549Z,101990.19
2023-02-16T10:25:15.153Z,101987.97
2023-02-16T10:27:46.013Z,101988.50
2023-02-16T10:30:18.896Z,101987.06
2023-02-16T10:32:57.967Z,101993.75
2023-02-16T10:35:41.000Z,101981.59
2023-02-16T10:38:14.360Z,101981.59
2023-02-16T10:40:44.262Z,101978.28
2023-02-16T10:43:18.324Z,101975.06
2023-02-16T10:45:55.410Z,101977.22
2023-02-16T10:48:23.672Z,101979.88
2023-02-16T10:51:06.764Z,101978.25
2023-02-16T10:53:45.703Z,101969.81
2023-02-16T10:56:31.394Z,101967.63
2023-02-16T10:58:59.421Z,101970.91
2023-02-16T11:01:39.670Z,101972.03
2023-02-16T11:04:06.807Z,101981.97
2023-02-16T11:06:36.489Z,101967.44
2023-02-16T11:09:04.593Z,101970.84
2023-02-16T11:11:38.704Z,101967.00
2023-02-16T11:14:19.736Z,101958.63
2023-02-16T11:16:47.254Z,101952.97
2023-02-16T11:19:25.008Z,101961.53
2023-02-16T11:21:58.870Z,101960.63
2023-02-16T11:24:27.907Z,101961.09
2023-02-16T11:27:04.083Z,101954.63
2023-02-16T11:29:31.711Z,101960.25
2023-02-16T11:31:59.396Z,101961.94
2023-02-16T11:34:40.125Z,101953.31
2023-02-16T11:37:28.378Z,101954.25
2023-02-16T11:39:59.297Z,101960.81
2023-02-16T11:42:44.068Z,101954.78
2023-02-16T11:45:29.681Z,101939.97
2023-02-16T11:48:13.876Z,101949.03
2023-02-16T11:50:57.173Z,101952.31
2023-02-16T11:53:27.883Z,101935.28
2023-02-16T11:56:19.218Z,101936.81
2023-02-16T11:59:04.268Z,101944.28
2023-02-16T12:02:02.737Z,101948.03
2023-02-16T12:05:07.613Z,101925.47
2023-02-16T12:08:09.974Z,101927.97
2023-02-16T12:10:54.195Z,101933.16
2023-02-16T12:13:36.517Z,101924.66
2023-02-16T12:16:22.005Z,101939.53
2023-02-16T12:19:07.679Z,101930.78
2023-02-16T12:21:45.505Z,101922.69
2023-02-16T12:24:42.228Z,101914.84
2023-02-16T12:27:39.779Z,101916.75
2023-02-16T12:30:12.482Z,101911.59
2023-02-16T12:32:55.442Z,101905.31
2023-02-16T12:35:38.404Z,101905.16
2023-02-16T12:38:14.772Z,101897.78
2023-02-16T12:41:32.872Z,101912.25
2023-02-16T12:44:18.003Z,101908.56
2023-02-16T12:47:08.337Z,101909.66
2023-02-16T12:49:52.445Z,101916.06
2023-02-16T12:52:35.573Z,101906.56
2023-02-16T12:55:23.560Z,101918.97
2023-02-16T12:58:08.629Z,101905.66
2023-02-16T13:01:19.039Z,101896.28
2023-02-16T13:03:50.872Z,101901.34
2023-02-16T13:06:40.351Z,101903.00
2023-02-16T13:09:25.980Z,101887.84
2023-02-16T13:11:58.056Z,101884.25
2023-02-16T13:14:32.845Z,101884.81
2023-02-16T13:17:03.841Z,101880.13
2023-02-16T13:19:31.054Z,101868.03
2023-02-16T13:22:29.716Z,101882.53
2023-02-16T13:25:04.405Z,101873.13
2023-02-16T13:27:41.844Z,101878.94
2023-02-16T13:30:20.979Z,101863.38
2023-02-16T13:33:07.170Z,101875.25
2023-02-16T13:35:45.597Z,101874.22
2023-02-16T13:38:31.106Z,101874.41
2023-02-16T13:41:24.444Z,101882.94
2023-02-16T13:43:57.219Z,101877.47
2023-02-16T13:46:32.343Z,101870.06
2023-02-16T13:49:02.248Z,101882.28
2023-02-16T13:51:44.332Z,101875.75
2023-02-16T13:54:28.791Z,101869.78
2023-02-16T13:56:56.100Z,101868.50
2023-02-16T13:59:22.901Z,101871.69
2023-02-16T14:01:51.533Z,101882.72
2023-02-16T14:04:27.399Z,101865.38
2023-02-16T14:07:03.400Z,101874.25
2023-02-16T14:09:31.685Z,101870.91
2023-02-16T14:11:59.562Z,101872.91
2023-02-16T14:14:27.033Z,101854.53
2023-02-16T14:16:54.717Z,101857.47
2023-02-16T14:19:26.335Z,101859.94
2023-02-16T14:21:53.829Z,101858.94
2023-02-16T14:24:32.783Z,101842.03
2023-02-16T14:27:05.649Z,101852.75
2023-02-16T14:29:38.590Z,101853.16
2023-02-16T14:32:46.016Z,101844.38
2023-02-16T14:35:24.749Z,101841.59
2023-02-16T14:37:58.644Z,101851.06
2023-02-16T14:40:34.672Z,101840.94
2023-02-16T14:43:12.817Z,101840.50
2023-02-16T14:45:59.906Z,101837.72
2023-02-16T14:48:59.154Z,101836.16
2023-02-16T14:52:04.381Z,101830.75
2023-02-16T14:54:58.939Z,101833.97
2023-02-16T14:57:37.884Z,101836.69
2023-02-16T15:00:19.746Z,101832.53
2023-02-16T15:03:15.952Z,101827.50
2023-02-16T15:05:43.447Z,101825.63
2023-02-16T15:08:19.400Z,101822.13
2023-02-16T15:10:46.695Z,101826.56
2023-02-16T15:13:34.121Z,101820.91
2023-02-16T15:30:20.646Z,101828.16
2023-02-16T15:32:53.485Z,101831.22
2023-02-16T15:35:37.935Z,101825.97
2023-02-16T15:38:26.672Z,101829.56
2023-02-16T15:40:55.556Z,101834.13
2023-02-16T15:43:44.266Z,101833.19
2023-02-16T15:46:39.791Z,101835.47
2023-02-16T15:49:27.532Z,101834.16
2023-02-16T15:51:56.983Z,101835.03
2023-02-16T15:54:30.814Z,101831.16
2023-02-16T15:57:04.220Z,101825.56
2023-02-16T15:59:47.703Z,101823.50
2023-02-16T16:02:37.460Z,101829.63
2023-02-16T16:05:09.415Z,101830.13
2023-02-16T16:07:41.788Z,101820.69
2023-02-16T16:10:29.473Z,101831.47
2023-02-16T16:13:07.552Z,101817.81
2023-02-16T16:15:39.553Z,101814.16
2023-02-16T16:18:06.808Z,101815.06
2023-02-16T16:20:39.247Z,101815.22
2023-02-16T16:23:07.407Z,101823.13
2023-02-16T16:25:34.205Z,101815.31
2023-02-16T16:28:02.496Z,101823.47
2023-02-16T16:30:31.810Z,101800.88
2023-02-16T16:33:07.780Z,101809.44
2023-02-16T16:35:42.885Z,101805.81
2023-02-16T16:38:28.476Z,101799.25
2023-02-16T16:40:58.754Z,101810.00
2023-02-16T16:43:30.276Z,101815.56
2023-02-16T16:46:28.023Z,101803.59
2023-02-16T16:49:00.152Z,101808.09
2023-02-16T16:51:27.792Z,101806.59
2023-02-16T16:54:05.613Z,101805.25
2023-02-16T16:56:37.611Z,101806.72
2023-02-16T16:59:05.263Z,101794.69
2023-02-16T17:01:32.743Z,101792.03
2023-02-16T17:04:00.315Z,101789.66
2023-02-16T17:06:27.399Z,101788.63
2023-02-16T17:08:55.389Z,101788.72
2023-02-16T17:11:28.484Z,101795.53
2023-02-16T17:13:57.676Z,101795.78
2023-02-16T17:16:38.227Z,101791.22
2023-02-16T17:19:05.342Z,101787.56
2023-02-16T17:21:32.437Z,101782.16
2023-02-16T17:23:59.295Z,101786.25
2023-02-16T17:26:26.213Z,101771.44
2023-02-16T17:28:53.003Z,101780.84
2023-02-16T17:31:20.033Z,101780.44
2023-02-16T17:33:46.924Z,101771.47
2023-02-16T17:36:16.248Z,101767.47
2023-02-16T17:38:44.353Z,101770.53
2023-02-16T17:41:19.940Z,101767.03
2023-02-16T17:43:46.852Z,101759.25
2023-02-16T17:46:14.997Z,101768.19
2023-02-16T17:48:42.218Z,101757.66
2023-02-16T17:51:18.067Z,101758.31
2023-02-16T17:53:45.329Z,101749.56
2023-02-16T17:56:13.884Z,101765.13
2023-02-16T17:58:41.362Z,101766.31
2023-02-16T18:01:13.051Z,101758.31
2023-02-16T18:03:40.140Z,101763.16
2023-02-16T18:06:07.135Z,101755.72
2023-02-16T18:08:34.311Z,101758.31
2023-02-16T18:11:04.179Z,101756.66
2023-02-16T18:13:31.876Z,101748.47
2023-02-16T18:16:01.033Z,101755.00
2023-02-16T18:18:27.949Z,101750.38
2023-02-16T18:20:54.940Z,101748.81
2023-02-16T18:23:21.893Z,101753.75
2023-02-16T18:25:48.830Z,101750.84
2023-02-16T18:28:21.263Z,101743.34
2023-02-16T18:30:49.345Z,101744.00
2023-02-16T18:33:23.378Z,101729.00
2023-02-16T18:35:56.057Z,101728.13
2023-02-16T18:38:23.853Z,101723.53
2023-02-16T18:40:52.736Z,101725.78
2023-02-16T18:43:20.074Z,101720.84
2023-02-16T18:45:47.233Z,101724.22
2023-02-16T18:48:14.065Z,101720.66
2023-02-16T18:50:40.987Z,101721.50
2023-02-16T18:53:07.885Z,101711.06
2023-02-16T18:55:35.241Z,101712.25
2023-02-16T18:58:07.739Z,101715.66
2023-02-16T19:00:35.589Z,101707.44
2023-02-16T19:03:02.956Z,101707.44
2023-02-16T19:05:30.182Z,101697.28
2023-02-16T19:07:57.170Z,101691.50
2023-02-16T19:10:25.143Z,101690.84
2023-02-16T19:12:52.238Z,101696.06
2023-02-16T19:15:19.317Z,101704.06
2023-02-16T19:17:46.179Z,101700.56
2023-02-16T19:20:18.066Z,101700.13
2023-02-16T19:22:46.874Z,101701.09
2023-02-16T19:25:14.718Z,101689.50
2023-02-16T19:27:42.079Z,101690.72
2023-02-16T19:30:10.462Z,101691.03
2023-02-16T19:32:41.055Z,101685.19
2023-02-16T19:35:11.740Z,101686.16
2023-02-16T19:37:39.128Z,101686.47
2023-02-16T19:40:09.576Z,101684.56
2023-02-16T19:42:37.470Z,101674.38
2023-02-16T19:45:04.996Z,101663.97
2023-02-16T19:47:31.889Z,101673.00
2023-02-16T19:49:58.784Z,101665.41
2023-02-16T19:52:25.625Z,101656.66
2023-02-16T19:54:52.487Z,101657.97
2023-02-16T19:57:19.544Z,101659.94
2023-02-16T19:59:46.388Z,101666.25
2023-02-16T20:02:15.563Z,101648.78
2023-02-16T20:04:44.026Z,101645.06
2023-02-16T20:07:10.949Z,101647.88
2023-02-16T20:09:38.014Z,101639.47
2023-02-16T20:12:05.689Z,101640.59
2023-02-16T20:14:32.699Z,101639.75
2023-02-16T20:16:59.662Z,101640.28
2023-02-16T20:19:26.538Z,101631.31
2023-02-16T20:21:53.375Z,101619.91
2023-02-16T20:24:20.644Z,101629.78
2023-02-16T20:26:49.226Z,101626.78
2023-02-16T20:29:20.905Z,101623.47
2023-02-16T20:31:57.322Z,101623.28
2023-02-16T20:34:26.428Z,101617.13
2023-02-16T20:36:54.312Z,101614.31
2023-02-16T20:39:21.498Z,101614.66
2023-02-16T20:41:48.404Z,101614.66
2023-02-16T20:44:15.628Z,101606.09
2023-02-16T20:46:43.111Z,101616.50
2023-02-16T20:49:10.436Z,101600.78
2023-02-16T20:51:38.151Z,101601.63
2023-02-16T20:54:05.905Z,101582.50
2023-02-16T20:56:33.121Z,101590.59
2023-02-16T20:59:00.046Z,101586.19
2023-02-16T21:01:46.897Z,101582.47
2023-02-16T21:04:15.953Z,101583.88
2023-02-16T21:06:43.235Z,101589.84
2023-02-16T21:09:11.150Z,101586.53
2023-02-16T21:11:39.416Z,101588.50
2023-02-16T21:14:08.314Z,101577.06
2023-02-16T21:16:35.345Z,101576.72
2023-02-16T21:19:07.248Z,101581.25
2023-02-16T21:21:38.770Z,101574.59
2023-02-16T21:24:05.813Z,101575.56
2023-02-16T21:26:32.850Z,101570.72
2023-02-16T21:29:00.016Z,101560.47
2023-02-16T21:31:27.038Z,101573.22
2023-02-16T21:33:54.109Z,101568.97
2023-02-16T21:36:23.461Z,101568.84
2023-02-16T21:38:50.547Z,101562.13
2023-02-16T21:41:27.512Z,101560.31
2023-02-16T21:44:11.114Z,101557.59
2023-02-16T21:46:39.844Z,101559.44
2023-02-16T21:49:09.689Z,101554.06
2023-02-16T21:51:45.773Z,101546.63
2023-02-16T21:54:18.074Z,101553.16
2023-02-16T21:56:54.757Z,101552.56
2023-02-16T21:59:23.671Z,101549.03
2023-02-16T22:01:52.677Z,101547.38
2023-02-16T22:04:23.679Z,101549.09
2023-02-16T22:06:51.943Z,101550.16
2023-02-16T22:09:23.334Z,101540.63
2023-02-16T22:11:51.949Z,101533.28
2023-02-16T22:14:20.088Z,101538.28
2023-02-16T22:16:48.020Z,101530.41
2023-02-16T22:19:19.944Z,101523.06
2023-02-16T22:21:48.656Z,101517.22
2023-02-16T22:24:20.256Z,101513.22
2023-02-16T22:26:49.299Z,101522.31
2023-02-16T22:29:16.877Z,101510.72
2023-02-16T22:31:48.064Z,101519.22
2023-02-16T22:34:17.502Z,101518.53
2023-02-16T22:36:44.356Z,101509.34
2023-02-16T22:39:13.244Z,101503.13
2023-02-16T22:41:40.156Z,101501.28
2023-02-16T22:44:07.477Z,101494.47
2023-02-16T22:46:34.480Z,101490.91
2023-02-16T22:49:02.150Z,101491.44
2023-02-16T22:51:30.959Z,101486.81
2023-02-16T22:54:00.697Z,101486.53
2023-02-16T22:56:30.005Z,101486.19
2023-02-16T22:58:58.293Z,101478.16
2023-02-16T23:01:27.417Z,101474.59
2023-02-16T23:03:58.811Z,101475.13
2023-02-16T23:06:27.153Z,101475.50
2023-02-16T23:08:57.557Z,101476.50
2023-02-16T23:11:25.482Z,101471.75
2023-02-16T23:13:52.384Z,101476.50
2023-02-16T23:16:22.880Z,101473.53
2023-02-16T23:18:50.313Z,101471.75
2023-02-16T23:21:28.093Z,101465.78
2023-02-16T23:23:55.686Z,101463.31
2023-02-16T23:26:24.924Z,101456.03
2023-02-16T23:28:57.273Z,101464.72
2023-02-16T23:31:24.244Z,101461.41
2023-02-16T23:33:51.534Z,101459.31
2023-02-16T23:36:18.458Z,101456.25
2023-02-16T23:38:45.298Z,101450.88
2023-02-16T23:41:13.812Z,101449.53
2023-02-16T23:43:40.799Z,101455.25
2023-02-16T23:46:08.546Z,101442.03
2023-02-16T23:48:35.899Z,101444.28
2023-02-16T23:51:02.756Z,101450.41
2023-02-16T23:53:29.718Z,101450.31
2023-02-16T23:56:02.165Z,101445.88
2023-02-16T23:58:31.357Z,101441.91
